Date,TemperatureHighF,TemperatureAvgF,TemperatureLowF,DewpointHighF,DewpointAvgF,DewpointLowF,HumidityHigh,HumidityAvg,HumidityLow,PressureMaxIn,PressureMinIn,WindSpeedMaxMPH,WindSpeedAvgMPH,GustSpeedMaxMPH,PrecipitationSumIn
2013-1-1,61,56,53,52,49,46,79,76,73,30.17,29.94,0,0,0,0.00
2013-1-2,58,53,45,52,46,38,82,79,75,30.19,29.89,0,0,0,0.10
2013-1-3,48,45,38,42,38,33,81,78,74,30.27,30.11,0,0,0,0.10
2013-1-4,55,44,36,39,34,30,81,69,45,30.34,30.21,0,0,0,0.00
2013-1-5,54,43,34,38,32,27,79,67,47,30.40,30.29,0,0,0,0.00
2013-1-6,55,49,43,45,42,37,82,76,66,30.29,30.08,0,0,0,0.05
2013-1-7,54,48,42,42,40,35,81,72,61,30.42,30.13,0,0,0,0.00
2013-1-8,60,52,43,52,45,37,81,78,72,30.44,30.33,0,0,0,0.00
2013-1-9,62,58,54,53,50,48,80,74,69,30.42,30.34,0,0,0,0.00
2013-1-10,59,57,53,52,49,44,81,74,63,30.50,30.40,0,0,0,0.00
2013-1-11,72,61,52,63,54,45,81,77,69,30.41,30.18,0,0,0,0.10
2013-1-12,78,65,62,63,57,53,79,74,60,30.20,30.11,0,0,0,0.02
2013-1-13,75,66,58,62,56,51,77,72,64,30.18,30.11,0,0,0,0.00
2013-1-14,73,65,61,61,56,53,76,72,64,30.21,30.11,0,0,0,0.01
2013-1-15,73,64,57,58,51,46,67,64,56,30.15,30.06,10,3,10,0.00
2013-1-16,72,66,59,58,53,47,68,64,59,30.07,29.96,21,8,21,0.01
2013-1-17,76,63,45,62,51,35,69,66,62,29.99,29.74,20,7,20,1.00
2013-1-18,52,45,38,36,33,29,71,63,49,30.52,29.96,18,7,18,0.00
2013-1-19,58,47,39,45,36,28,70,65,54,30.49,30.20,16,5,16,0.00
2013-1-20,66,54,47,46,40,36,68,62,37,30.21,30.00,14,5,16,0.01
2013-1-21,65,54,45,51,43,35,70,65,49,30.07,29.90,16,6,16,0.00
2013-1-22,54,45,36,36,25,18,60,46,30,30.24,29.95,17,4,17,0.00
2013-1-23,47,38,31,35,18,10,69,46,32,30.39,30.14,15,1,15,0.00
2013-1-24,52,44,33,42,29,12,73,56,36,30.51,30.00,0,0,0,0.00
2013-1-25,46,36,26,40,27,11,82,71,50,30.51,30.12,0,0,0,0.01
2013-1-26,50,40,33,40,33,28,83,75,64,30.37,30.12,0,0,0,0.01
2013-1-27,46,39,30,38,31,25,83,73,58,30.56,30.37,0,0,0,0.02
2013-1-28,56,48,37,47,41,30,80,77,66,30.51,30.28,0,0,0,0.00
2013-1-29,71,60,51,58,48,40,66,64,58,30.28,30.15,0,0,0,0.02
2013-1-30,72,64,60,55,50,48,64,60,55,30.03,29.62,0,0,0,0.00
2013-1-31,66,53,46,52,36,27,65,53,34,30.12,29.56,0,0,0,0.14
2013-2-1,55,46,34,34,24,8,57,42,19,30.40,30.07,0,0,0,0.00
2013-2-2,54,41,29,41,28,10,77,60,36,30.43,30.07,0,0,0,0.00
2013-2-3,57,50,43,43,34,29,77,55,37,30.06,29.88,0,0,0,0.00
2013-2-4,55,45,36,37,33,27,75,63,46,30.18,30.01,0,0,0,0.00
2013-2-5,63,53,44,50,43,37,79,69,48,30.08,29.93,0,0,0,0.00
2013-2-6,67,55,49,54,47,41,78,73,61,30.24,30.01,0,0,0,0.00
2013-2-7,56,53,51,46,42,40,75,66,65,30.25,29.78,0,0,0,1.56
2013-2-8,63,56,49,47,42,37,65,60,56,30.02,29.56,0,0,0,0.88
2013-2-9,58,47,40,38,31,26,69,55,31,30.39,30.02,0,0,0,0.00
2013-2-10,56,51,44,46,39,30,71,62,49,30.49,30.27,0,0,0,0.00
2013-2-11,66,60,55,50,47,43,64,61,58,30.32,29.98,0,0,0,0.16
2013-2-12,66,58,52,49,43,38,61,57,50,30.12,29.92,0,0,0,0.57
2013-2-13,61,55,48,44,40,35,60,56,51,29.99,29.67,0,0,0,0.51
2013-2-14,56,50,44,42,36,29,61,59,55,30.10,29.82,0,0,0,0.00
2013-2-15,62,49,42,48,37,30,67,62,55,30.11,29.97,0,0,0,0.00
2013-2-16,55,44,36,42,32,25,65,63,60,29.97,29.72,0,0,0,0.06
2013-2-17,42,36,32,26,21,14,70,55,32,30.31,29.22,0,0,0,0.00
2013-2-18,53,42,30,37,28,21,71,58,41,30.47,30.31,0,0,0,0.00
2013-2-19,64,54,43,52,42,34,72,65,60,30.32,29.96,0,0,0,0.13
2013-2-20,56,48,41,38,34,27,72,58,36,30.14,29.99,0,0,0,0.00
2013-2-21,58,46,37,42,32,21,74,59,46,30.24,30.11,0,0,0,0.00
2013-2-22,54,50,45,43,40,34,76,68,61,30.32,30.06,0,0,0,0.28
2013-2-23,56,50,46,42,36,33,62,60,58,30.07,29.83,0,0,0,0.37
2013-2-24,65,53,48,46,37,34,58,54,48,30.02,29.74,0,0,0,0.02
2013-2-25,51,47,44,36,32,29,60,56,54,30.18,29.99,0,0,0,0.09
2013-2-26,64,57,48,42,38,33,56,50,40,30.07,29.61,0,0,0,0.86
2013-2-27,61,54,50,42,34,31,55,47,40,29.85,29.65,0,0,0,0.00
2013-2-28,59,52,46,42,35,29,68,53,46,29.86,29.72,0,0,0,0.00
2013-3-1,56,47,39,39,34,30,71,61,43,29.93,29.83,0,0,0,0.00
2013-3-2,55,46,40,37,34,32,74,63,48,29.92,29.81,0,0,0,0.00
2013-3-3,50,42,35,34,27,24,75,57,39,29.97,29.86,0,0,0,0.00
2013-3-4,52,41,32,27,23,19,69,50,30,30.14,29.98,0,0,0,0.00
2013-3-5,63,53,41,53,43,29,79,69,49,30.14,29.65,0,0,0,0.03
2013-3-6,61,52,45,49,35,27,72,54,39,29.98,29.56,0,0,0,0.00
2013-3-7,59,48,37,35,32,30,76,57,39,30.21,29.99,0,0,0,0.00
2013-3-8,58,47,37,33,30,28,73,53,32,30.27,30.12,0,0,0,0.00
2013-3-9,64,50,40,46,37,29,79,62,42,30.31,30.24,0,0,0,0.00
2013-3-10,59,53,42,46,42,36,80,68,55,30.35,30.26,0,0,0,0.00
2013-3-11,67,56,52,51,37,32,60,50,42,30.27,29.98,0,0,0,0.01
2013-3-12,68,61,57,45,38,34,47,42,40,29.98,29.42,0,0,0,0.77
2013-3-13,64,55,47,44,38,30,70,54,31,30.09,29.89,0,0,0,0.00
2013-3-14,55,46,36,33,25,20,56,45,29,30.26,30.07,0,0,0,0.00
2013-3-15,58,50,38,47,34,23,76,56,29,30.23,30.01,0,0,0,0.00
2013-3-16,68,61,56,54,51,47,75,69,55,30.02,29.80,0,0,0,0.00
2013-3-17,74,61,52,58,51,40,78,71,54,30.12,29.91,0,0,0,0.00
2013-3-18,64,54,51,52,40,36,68,60,48,30.14,29.88,0,0,0,0.00
2013-3-19,71,60,54,54,40,31,64,48,41,29.98,29.76,0,0,0,0.35
2013-3-20,62,54,46,41,30,18,60,42,25,30.12,29.83,0,0,0,0.00
2013-3-21,55,47,41,36,27,18,68,48,25,29.94,29.70,0,0,0,0.00
2013-3-22,40,35,33,18,16,14,48,44,41,30.09,29.97,0,0,0,0.00
2013-3-24,60,53,45,36,31,25,47,42,40,29.77,29.40,0,0,0,1.43
2013-3-25,56,49,44,38,30,24,61,48,41,29.87,29.53,0,0,0,0.00
2013-3-26,53,46,37,33,29,26,67,53,39,30.13,29.87,0,0,0,0.00
2013-3-27,58,47,38,32,29,25,67,50,30,30.24,30.13,0,0,0,0.00
2013-3-28,59,48,38,33,28,25,66,48,30,30.28,30.17,0,0,0,0.00
2013-3-29,60,51,39,44,34,26,72,53,39,30.36,30.24,0,0,0,0.00
2013-3-30,67,56,50,54,45,39,72,67,57,30.28,30.15,0,0,0,0.01
2013-3-31,66,60,52,50,41,33,58,50,40,30.16,29.91,0,0,0,0.12
2013-4-1,72,64,58,53,40,33,51,42,37,29.93,29.84,0,0,0,0.09
2013-4-2,65,57,50,46,40,32,69,55,38,30.17,29.92,0,0,0,0.01
2013-4-3,58,54,52,43,40,34,69,58,45,30.29,30.11,0,0,0,0.00
2013-4-4,60,54,52,45,38,30,69,55,37,30.29,29.80,0,0,0,1.69
2013-4-5,59,51,44,36,28,21,44,41,36,30.04,29.80,0,0,0,0.00
2013-4-6,64,55,47,47,34,22,58,46,37,30.30,30.03,0,0,0,0.01
2013-4-7,73,62,52,49,36,25,44,38,34,30.30,30.18,0,0,0,0.00
2013-4-10,78,72,65,56,41,20,47,34,18,30.16,30.05,0,0,0,0.00
2013-4-11,81,70,65,38,23,8,24,17,10,30.06,29.89,0,0,0,0.01
2013-4-12,77,69,63,18,10,6,11,4,1,29.90,29.71,0,0,0,1.00
2013-4-13,72,65,56,52,28,0,53,26,1,30.04,29.77,0,0,0,0.02
2013-4-14,74,63,54,40,10,-1,30,10,1,30.13,30.02,0,0,0,0.01
2013-4-15,74,66,61,24,9,4,16,4,1,30.19,29.93,0,0,0,0.92
2013-4-16,78,67,62,22,9,5,13,3,1,30.29,30.17,0,0,0,0.00
2013-4-17,85,71,61,51,15,4,31,6,1,30.25,30.15,0,0,0,0.01
2013-4-18,86,72,64,57,14,6,39,5,1,30.21,30.08,0,0,0,0.04
2013-4-19,78,72,68,17,12,10,1,1,1,30.08,29.89,0,0,0,1.24
2013-4-20,68,60,54,44,23,1,54,26,1,30.26,29.89,0,0,0,0.72
2013-4-21,63,59,53,44,26,-2,51,31,1,30.42,30.25,0,0,0,0.00
2013-4-22,63,55,48,28,6,-6,40,11,1,30.38,30.15,0,0,0,0.00
2013-4-23,76,61,54,54,13,-1,49,12,1,30.19,30.11,0,0,0,0.00
2013-4-24,76,67,56,38,10,0,26,4,1,30.20,30.08,0,0,0,0.00
2013-4-25,79,68,61,37,10,4,24,2,1,30.26,30.08,0,0,0,0.00
2013-4-26,73,64,54,54,22,-1,51,20,1,30.42,30.25,0,0,0,0.00
2013-4-27,74,65,61,54,20,4,50,16,1,30.38,30.27,0,0,0,0.00
2013-4-28,76,68,64,45,11,6,34,3,1,30.28,30.11,0,0,0,0.00
2013-4-29,80,68,64,18,10,6,1,1,1,30.11,30.00,0,0,0,1.52
2013-4-30,76,69,64,15,10,6,1,1,1,30.12,29.98,0,0,0,0.05
2013-5-1,76,67,62,15,9,4,1,1,1,30.23,30.09,0,0,0,0.02
2013-5-2,70,66,63,11,8,6,1,1,1,30.25,30.17,0,0,0,0.02
2013-5-3,68,65,61,10,7,4,1,1,1,30.17,30.10,0,0,0,0.01
2013-5-4,68,63,60,9,6,3,1,1,1,30.11,29.99,0,0,0,0.00
2013-5-5,81,67,61,20,9,4,1,1,1,30.01,29.91,0,0,0,0.07
2013-5-6,78,70,64,55,18,3,47,10,1,29.93,29.86,0,0,0,0.26
2013-5-7,74,66,59,54,22,0,51,18,1,29.97,29.87,0,0,0,0.00
2013-5-8,76,69,60,56,29,-10,51,24,1,30.04,29.95,0,0,0,0.01
2013-5-9,82,76,66,59,37,5,48,25,1,30.10,29.99,0,0,0,0.00
2013-5-10,83,75,68,58,25,9,44,12,1,30.10,30.04,0,0,0,0.00
2013-5-11,83,75,72,30,15,12,17,2,1,30.05,29.87,0,0,0,0.00
2013-5-12,86,77,69,64,28,0,54,15,1,29.97,29.80,0,0,0,0.00
2013-5-13,76,66,58,50,42,38,53,43,28,30.14,29.97,0,0,0,0.00
2013-5-14,74,66,56,52,45,39,60,48,35,30.26,30.14,0,0,0,0.00
2013-5-15,79,72,66,55,33,8,62,25,1,30.17,30.00,0,0,0,0.00
2013-5-16,85,76,71,64,26,12,49,13,1,30.04,29.96,0,0,0,0.00
2013-5-17,85,76,69,65,26,10,51,13,1,30.12,30.01,0,0,0,0.00
2013-5-18,86,76,70,23,16,11,1,1,1,30.19,30.12,0,0,0,0.00
2013-5-19,88,80,70,25,18,10,1,1,1,30.19,30.11,0,0,0,0.00
2013-5-20,87,76,71,24,16,12,1,1,1,30.17,30.07,0,0,0,0.00
2013-5-21,75,71,70,15,12,11,1,1,1,30.09,30.04,0,0,0,0.00
2013-5-22,75,75,75,15,15,15,1,1,1,30.09,30.09,0,0,0,0.00
2013-5-24,83,76,63,58,42,17,45,32,1,30.17,29.88,0,0,0,0.00
2013-5-25,84,67,54,55,41,5,56,41,1,30.30,30.14,0,0,0,0.00
2013-5-26,71,67,64,11,9,6,1,1,1,30.23,30.15,0,0,0,0.00
2013-5-29,92,84,74,45,24,14,23,5,1,30.30,30.23,0,0,0,0.00
2013-5-30,93,80,69,29,19,10,1,1,1,30.29,30.22,0,0,0,0.00
2013-5-31,91,80,70,27,19,10,1,1,1,30.26,30.17,0,0,0,0.00
2013-6-1,91,80,71,27,19,12,9,1,1,30.19,30.10,0,0,0,0.00
2013-6-2,92,81,73,28,19,13,1,1,1,30.13,29.99,0,0,0,0.00
2013-6-3,86,75,69,23,15,10,1,1,1,29.99,29.86,0,0,0,0.77
2013-6-4,83,72,69,21,13,10,1,1,1,30.01,29.91,0,0,0,0.00
2013-6-5,84,77,73,22,16,13,1,1,1,30.06,30.01,0,0,0,0.00
2013-6-6,80,75,71,18,15,12,1,1,1,30.03,29.82,0,0,0,0.66
2013-6-7,86,78,72,23,17,13,1,1,1,29.87,29.60,0,0,0,0.77
2013-6-8,87,80,75,24,18,15,1,1,1,30.12,29.86,0,0,0,0.00
2013-6-9,86,79,73,24,18,13,1,1,1,30.17,30.10,0,0,0,0.11
2013-6-10,88,79,74,24,18,14,1,1,1,30.15,29.99,0,0,0,0.00
2013-6-11,89,80,72,42,19,13,21,2,1,30.02,29.91,0,0,0,0.11
2013-6-12,95,83,72,73,34,2,53,14,1,29.99,29.90,0,0,0,0.00
2013-6-13,93,85,77,28,22,17,1,1,1,29.90,29.68,0,0,0,0.00
2013-6-14,92,78,70,64,43,10,62,32,1,30.01,29.69,0,0,0,0.12
2013-6-15,91,80,70,64,58,39,64,47,30,30.14,30.01,0,0,0,0.00
2013-6-16,88,81,75,66,62,51,64,53,43,30.18,30.08,0,0,0,0.00
2013-6-17,90,81,76,71,47,15,64,34,1,30.10,29.99,0,0,0,0.00
2013-6-18,89,81,72,36,20,13,17,2,1,30.02,29.84,0,0,0,0.07
2013-6-19,80,75,71,72,36,12,93,34,1,30.06,29.84,25,6,29,0.22
2013-6-20,78,76,68,71,67,62,93,76,59,30.16,30.10,23,19,31,0.00
2013-6-21,79,73,66,74,69,62,94,86,74,30.17,30.11,23,14,28,0.00
2013-6-22,79,76,72,75,73,70,97,91,84,30.15,30.06,20,12,26,0.26
2013-6-23,82,78,75,76,74,72,96,89,82,30.20,30.13,25,6,25,0.46
2013-6-24,84,80,77,77,75,74,94,86,75,30.22,30.12,22,8,24,0.01
2013-6-25,84,80,74,77,75,68,92,85,72,30.14,30.03,22,8,23,0.03
2013-6-26,85,80,73,76,75,70,90,84,70,30.04,29.94,21,10,24,0.08
2013-6-27,84,79,71,79,75,69,95,88,72,29.98,29.76,18,10,24,0.29
2013-6-28,84,81,79,78,77,76,93,87,77,29.82,29.64,28,15,33,0.17
2013-6-29,82,80,74,77,75,72,95,86,76,29.79,29.64,36,14,36,0.19
2013-6-30,82,78,74,77,75,71,96,90,75,29.89,29.73,36,11,36,1.11
2013-7-1,79,77,74,77,74,72,97,92,88,30.05,29.85,29,13,30,0.48
2013-7-2,82,79,75,78,75,71,92,88,83,30.18,30.04,21,13,23,0.01
2013-7-3,83,80,77,78,77,74,95,89,82,30.24,30.15,23,14,26,0.00
2013-7-4,82,80,78,77,76,74,92,86,82,30.26,30.20,22,13,22,0.00
2013-7-5,82,80,77,78,76,73,93,88,79,30.26,30.18,23,10,29,0.07
2013-7-6,84,80,77,77,75,73,93,83,73,30.24,30.14,15,6,16,0.00
2013-7-7,84,80,77,75,73,70,92,79,66,30.19,30.09,16,7,16,0.00
2013-7-8,86,81,76,75,73,71,84,78,65,30.18,30.10,18,6,18,0.00
2013-7-9,86,81,77,77,74,69,89,80,70,30.18,30.09,22,7,22,0.00
2013-7-10,86,81,77,76,74,71,92,80,62,30.13,29.98,23,8,23,0.01
2013-7-11,85,79,76,77,75,72,93,86,68,30.00,29.89,27,9,30,0.43
2013-7-12,81,76,72,76,73,70,97,91,80,29.97,29.86,25,5,25,1.50
2013-7-13,80,77,73,76,74,71,97,91,84,30.14,29.94,41,15,42,0.33
2013-7-14,83,80,77,78,76,74,94,90,80,30.24,30.14,19,10,20,0.00
2013-7-15,83,81,79,78,77,76,95,89,80,30.26,30.20,18,10,19,0.00
2013-7-16,86,82,75,77,75,71,97,80,65,30.25,30.16,14,5,14,0.00
2013-7-17,86,81,77,78,75,73,92,83,69,30.18,30.09,16,6,16,0.00
2013-7-18,86,82,76,78,76,73,95,83,69,30.13,30.06,13,6,15,0.00
2013-7-19,86,82,79,77,75,74,87,79,69,30.12,30.01,21,9,27,0.00
2013-7-20,86,82,76,76,74,71,94,78,64,30.07,29.97,32,13,32,0.25
2013-7-21,83,81,78,76,74,70,89,82,72,30.03,29.92,40,12,40,0.00
2013-7-22,85,81,77,78,76,75,95,86,76,29.96,29.86,33,10,33,0.00
2013-7-23,84,80,78,78,75,74,91,85,76,29.89,29.75,26,12,26,0.00
2013-7-24,86,81,77,79,76,74,94,86,76,29.79,29.74,12,7,15,0.00
2013-7-25,84,80,75,76,74,71,97,84,71,29.96,29.74,15,5,19,0.00
2013-7-26,80,77,74,74,72,71,92,84,74,30.07,29.96,21,11,21,0.00
2013-7-27,83,80,77,76,75,71,91,83,76,30.03,29.92,17,7,17,0.00
2013-7-28,88,81,77,78,76,73,95,86,66,30.00,29.87,14,6,18,0.02
2013-7-29,87,80,73,79,76,71,95,88,73,30.13,29.99,16,7,20,0.28
2013-7-30,82,78,74,76,74,72,97,89,78,30.17,30.09,12,4,12,0.43
2013-7-31,83,79,75,77,75,72,96,87,79,30.12,30.00,12,5,12,0.00
2013-8-1,82,78,72,76,74,68,98,89,76,30.00,29.89,30,8,30,1.04
2013-8-2,86,82,78,78,76,75,93,84,72,30.02,29.90,14,8,20,0.00
2013-8-3,86,82,80,78,77,75,90,85,72,30.02,29.90,12,8,18,0.00
2013-8-4,90,81,76,78,75,70,94,83,59,29.99,29.84,26,8,26,0.00
2013-8-5,81,80,78,71,65,60,78,61,51,30.06,29.96,23,13,23,0.00
2013-8-6,82,80,76,70,66,60,74,62,51,30.05,29.97,15,8,18,0.00
2013-8-7,83,81,79,77,72,68,89,75,67,30.07,30.00,16,8,16,0.00
2013-8-8,85,82,78,79,77,74,92,85,78,30.05,29.99,17,6,17,0.00
2013-8-9,87,84,80,78,77,74,91,79,66,30.08,30.00,24,10,24,0.00
2013-8-10,87,83,80,79,77,75,91,83,71,30.10,30.03,21,10,24,0.00
2013-8-11,90,84,78,80,78,72,92,83,66,30.10,30.01,24,8,24,0.12
2013-8-12,91,85,80,80,78,76,91,81,63,30.05,29.93,23,9,23,0.00
2013-8-13,87,84,81,81,79,76,91,84,76,29.95,29.79,30,13,30,0.00
2013-8-14,84,77,69,79,74,65,97,90,81,30.01,29.79,34,11,34,0.26
2013-8-15,73,69,65,68,66,63,97,92,82,30.07,29.98,25,14,30,0.60
2013-8-16,75,71,66,72,69,64,98,93,87,30.08,30.00,20,10,22,0.17
2013-8-17,82,76,70,76,74,69,98,93,80,30.11,30.02,24,9,27,1.26
2013-8-18,82,77,71,78,74,71,98,92,84,30.17,30.09,10,4,11,0.00
2013-8-19,81,78,76,78,76,74,99,94,85,30.14,30.03,17,6,17,0.34
2013-8-20,84,79,75,79,76,72,98,92,79,30.15,30.05,19,5,19,0.02
2013-8-21,86,81,76,80,77,75,98,88,75,30.20,30.09,13,5,13,0.00
2013-8-22,86,79,75,78,75,70,97,89,70,30.13,30.00,15,4,16,0.00
2013-8-23,88,81,72,78,75,69,95,84,63,30.01,29.90,19,6,19,0.45
2013-8-24,81,76,71,73,70,66,95,82,67,30.20,29.97,26,14,29,0.01
2013-8-25,78,75,68,70,67,63,88,77,67,30.29,30.19,29,16,31,0.00
2013-8-26,79,74,65,71,66,62,91,78,61,30.24,30.10,26,8,26,0.00
2013-8-27,84,77,70,68,65,59,87,68,47,30.11,29.97,21,6,21,0.00
2013-8-28,84,80,75,76,73,68,86,79,71,30.00,29.90,20,8,20,0.00
2013-8-29,90,80,76,78,74,70,94,81,61,29.94,29.83,31,9,31,0.72
2013-8-30,80,76,72,76,73,70,94,88,81,30.01,29.92,27,12,27,0.00
2013-8-31,83,80,75,78,76,73,94,88,80,29.95,29.87,13,6,13,0.00
2013-9-1,87,82,78,79,77,76,95,87,73,29.93,29.82,15,8,21,0.00
2013-9-2,87,82,80,79,78,77,92,87,78,29.90,29.80,17,13,24,0.00
2013-9-3,86,81,77,78,75,71,92,84,75,29.91,29.80,25,9,25,0.00
2013-9-4,82,79,74,78,75,72,95,88,79,30.04,29.90,15,6,15,0.00
2013-9-5,87,81,77,79,77,72,97,88,72,30.05,29.98,11,3,11,0.01
2013-9-6,82,78,72,75,72,66,93,83,74,30.07,29.99,34,12,34,0.00
2013-9-7,79,76,68,73,67,62,90,73,57,30.07,29.95,29,12,32,0.00
2013-9-8,84,78,72,72,69,64,86,73,63,29.97,29.87,19,5,19,0.00
2013-9-9,83,79,74,75,73,70,90,80,72,30.12,29.96,19,7,19,0.00
2013-9-10,83,80,76,76,74,70,91,81,66,30.19,30.11,19,10,19,0.00
2013-9-11,82,80,77,76,73,71,86,80,72,30.18,30.07,16,8,16,0.00
2013-9-12,84,79,74,75,73,71,96,83,67,30.07,29.82,20,6,20,0.00
2013-9-13,84,80,76,76,74,67,90,81,73,29.82,29.71,19,7,19,0.00
2013-9-14,78,75,70,73,68,62,89,78,70,30.06,29.77,33,15,33,0.00
2013-9-15,79,76,71,74,71,68,91,83,79,30.17,30.05,27,17,27,0.00
2013-9-16,85,79,72,76,73,71,95,83,69,30.11,29.99,19,6,19,0.19
2013-9-17,76,72,67,70,65,60,93,79,67,30.22,30.07,38,19,38,0.00
2013-9-18,75,68,59,65,60,54,83,76,64,30.21,30.11,32,10,33,0.00
2013-9-19,75,72,65,65,60,52,88,68,50,30.15,30.05,22,8,22,0.00
2013-9-20,78,72,65,67,63,58,90,73,56,30.07,29.93,14,5,15,0.00
2013-9-21,80,76,73,73,71,65,90,82,69,29.94,29.72,20,7,20,0.01
2013-9-22,79,74,70,74,69,64,96,87,78,29.83,29.62,33,8,34,0.48
2013-9-23,73,69,62,64,59,55,86,71,53,30.04,29.83,24,9,29,0.00
2013-9-24,71,68,63,59,57,52,78,66,57,30.07,29.92,23,8,23,0.00
2013-9-25,74,72,70,67,63,58,83,74,65,29.93,29.81,29,16,29,0.00
2013-9-26,75,70,64,67,64,61,94,80,67,29.93,29.79,32,12,32,0.10
2013-9-27,75,69,63,65,61,56,91,77,56,30.08,29.92,36,14,36,0.00
2013-9-28,75,69,64,65,61,58,86,76,62,30.12,30.04,33,14,33,0.00
2013-9-29,74,68,59,64,61,57,95,80,66,30.08,29.97,31,8,33,0.00
2013-9-30,75,70,61,65,57,49,93,64,48,30.04,29.95,19,6,19,0.00
2013-10-1,74,69,60,64,59,55,90,71,56,30.10,30.00,13,5,17,0.00
2013-10-2,81,72,64,68,64,60,90,76,53,30.11,30.03,14,5,14,0.00
2013-10-3,78,74,68,72,70,67,97,88,79,30.13,30.06,9,4,9,0.00
2013-10-4,80,76,71,73,70,68,92,85,76,30.12,30.05,12,3,12,0.00
2013-10-5,80,75,69,74,71,68,96,88,75,30.11,30.03,9,4,9,0.00
2013-10-6,79,76,72,75,73,69,94,90,82,30.04,29.93,20,6,21,0.04
2013-10-7,79,77,72,75,74,70,97,89,83,29.93,29.82,24,11,24,1.04
2013-10-8,72,65,59,72,64,58,99,97,92,30.04,29.84,38,16,39,1.18
2013-10-9,66,62,59,62,59,57,99,93,85,30.02,29.92,35,13,35,0.01
2013-10-10,63,60,57,60,58,56,97,93,86,29.94,29.88,32,11,32,0.00
2013-10-11,72,66,61,65,62,60,97,89,77,29.94,29.87,12,4,16,0.00
2013-10-12,68,66,63,65,63,61,96,91,84,30.02,29.91,15,4,15,0.00
2013-10-13,74,70,66,69,67,64,98,91,78,30.08,30.00,23,7,23,0.00
2013-10-14,74,71,66,68,66,62,93,86,82,30.09,30.02,32,15,32,0.00
2013-10-15,71,66,61,65,62,60,94,89,81,30.09,29.97,22,7,22,0.00
2013-10-16,73,68,65,67,65,64,97,90,78,30.00,29.92,13,4,13,0.00
2013-10-17,76,69,62,70,65,61,97,87,66,29.97,29.86,14,5,16,0.00
2013-10-18,74,71,68,71,69,67,96,92,86,29.98,29.87,13,4,13,0.00
2013-10-19,76,72,68,73,70,67,99,95,86,29.92,29.83,15,3,16,0.01
2013-10-20,71,65,60,67,57,52,89,75,63,30.06,29.86,25,10,25,0.00
2013-10-21,69,65,60,61,57,52,92,78,59,30.10,29.97,26,8,26,0.00
2013-10-22,68,64,61,61,57,53,88,77,66,29.99,29.82,9,2,9,0.03
2013-10-23,72,64,56,61,53,39,98,72,41,29.96,29.67,28,7,28,0.17
2013-10-24,62,54,45,45,38,33,79,57,38,30.16,29.96,23,5,23,0.00
2013-10-25,59,53,48,48,37,30,78,55,37,30.33,30.12,26,7,26,0.00
2013-10-26,63,53,42,46,39,30,89,59,44,30.32,30.10,16,5,16,0.00
2013-10-27,66,58,50,52,45,39,77,62,42,30.13,30.05,14,4,14,0.00
2013-10-28,71,65,60,60,56,51,86,73,58,30.23,30.11,9,2,9,0.00
2013-10-29,69,64,57,63,59,54,94,82,71,30.29,30.20,14,5,14,0.00
2013-10-30,70,66,60,66,62,58,98,88,74,30.29,30.17,10,4,10,0.00
2013-10-31,76,68,62,69,65,60,96,90,70,30.20,29.98,14,4,14,0.00
2013-11-1,76,73,69,72,70,67,97,90,83,29.98,29.73,30,11,31,0.08
2013-11-2,74,66,60,71,63,51,98,89,71,29.89,29.68,27,6,27,1.12
2013-11-3,64,58,52,52,44,39,81,60,42,30.28,29.88,28,9,32,0.00
2013-11-4,59,56,47,50,45,38,82,67,51,30.44,30.28,33,20,40,0.00
2013-11-5,69,59,46,64,55,42,93,86,79,30.41,30.33,26,14,31,0.00
2013-11-6,67,64,60,65,62,55,99,91,81,30.33,30.07,24,14,26,0.08
2013-11-7,71,66,58,68,64,44,99,93,60,30.07,29.89,28,6,28,0.25
2013-11-8,58,52,46,44,35,28,67,53,36,30.29,30.01,25,8,28,0.00
2013-11-9,60,54,45,53,44,33,84,69,56,30.34,30.19,14,5,16,0.00
2013-11-10,68,60,54,54,49,39,88,69,35,30.22,30.08,8,5,12,0.00
2013-11-11,58,54,47,49,44,37,89,69,53,30.29,30.14,22,10,33,0.00
2013-11-12,67,55,38,50,41,25,93,63,38,30.32,29.98,39,8,39,0.00
2013-11-13,46,38,33,30,22,17,87,53,34,30.48,30.30,39,9,39,0.00
2013-11-14,56,46,34,46,34,20,87,62,41,30.49,30.34,10,4,10,0.00
2013-11-15,63,58,48,61,54,44,97,86,72,30.35,30.18,20,8,20,0.00
2013-11-16,66,63,61,64,62,60,98,95,91,30.21,30.14,15,6,15,0.00
2013-11-17,69,63,58,68,62,58,99,96,92,30.17,29.97,20,6,20,0.08
2013-11-18,74,69,66,71,68,66,99,97,88,29.97,29.77,21,8,21,0.02
2013-11-19,64,55,52,47,38,31,71,52,42,30.22,29.87,32,16,32,0.00
2013-11-20,59,52,42,52,45,36,88,78,66,30.34,30.20,29,16,35,0.00
2013-11-21,64,60,49,61,58,46,98,92,86,30.39,30.32,24,12,26,0.00
2013-11-22,69,63,57,65,61,56,98,94,85,30.34,30.10,17,5,19,0.00
2013-11-23,66,61,54,64,59,38,97,92,55,30.10,29.98,23,6,23,0.07
2013-11-24,54,40,33,40,16,6,62,39,24,30.52,30.07,32,10,32,0.00
2013-11-25,55,39,29,53,27,8,92,63,39,30.56,30.29,28,12,28,0.00
2013-11-26,66,62,55,66,60,53,99,92,80,30.29,29.62,34,15,34,0.37
2013-11-27,68,54,35,68,52,25,99,91,66,30.14,29.43,34,12,35,0.38
2013-11-28,44,37,30,33,26,18,79,63,50,30.47,30.14,24,7,24,0.00
2013-11-29,53,44,35,40,32,26,81,62,44,30.55,30.45,38,10,38,0.00
2013-11-30,56,47,35,48,40,31,87,78,70,30.53,30.29,37,9,38,0.00
2013-12-1,55,50,46,54,48,43,98,92,87,30.29,29.98,13,4,13,0.02
2013-12-2,58,52,47,51,49,44,98,89,73,29.98,29.79,14,4,14,0.00
2013-12-3,61,54,45,56,49,41,92,84,65,30.01,29.86,10,2,10,0.00
2013-12-4,70,63,58,64,60,56,98,91,78,30.10,29.98,20,4,20,0.04
2013-12-5,72,64,54,68,62,54,99,96,86,30.16,30.08,15,4,16,0.01
2013-12-6,73,68,64,70,67,64,99,95,87,30.15,30.06,19,9,21,0.00
2013-12-7,70,57,46,69,56,44,99,96,83,30.36,30.07,36,12,37,0.08
2013-12-8,47,44,42,46,43,41,98,95,92,30.35,30.24,40,11,40,0.01
2013-12-9,67,54,42,66,53,42,100,98,91,30.25,30.05,12,3,12,0.01
2013-12-10,65,63,58,65,62,58,100,99,94,30.06,29.88,33,10,33,0.11
2013-12-11,48,45,38,41,33,23,84,63,48,30.47,30.26,21,5,21,0.00
2013-12-12,49,43,37,38,28,22,83,59,37,30.37,30.24,24,5,24,0.00
2013-12-13,50,43,35,41,31,20,83,63,36,30.43,30.29,8,3,8,0.00
2013-12-14,66,60,48,65,56,42,99,88,77,30.29,29.76,33,15,33,0.61
2013-12-15,64,56,45,63,52,38,99,88,74,30.08,29.69,27,7,28,0.10
2013-12-16,57,47,38,46,39,33,87,74,48,30.20,30.08,16,5,16,0.00
2013-12-17,51,50,48,47,44,38,89,81,68,30.18,30.16,11,5,11,0.00
2013-12-18,55,47,44,45,33,25,77,60,36,30.32,30.00,14,5,27,0.00
2013-12-19,60,51,42,48,39,27,90,65,39,30.37,30.26,14,3,14,0.00
2013-12-20,70,60,53,62,56,48,95,89,71,30.26,30.15,13,4,13,0.01
2013-12-21,71,64,61,67,62,59,99,94,84,30.18,30.09,16,5,16,0.00
2013-12-22,74,67,62,70,66,61,100,96,86,30.14,30.08,23,9,23,0.20
2013-12-23,72,66,59,69,65,57,100,97,83,30.12,30.02,26,10,26,0.18
2013-12-24,59,49,40,57,44,30,98,82,61,30.38,30.01,18,7,21,0.22
2013-12-25,46,38,31,43,29,22,87,68,58,30.49,30.32,26,10,26,0.00
2013-12-26,49,45,39,47,41,36,94,86,74,30.32,30.20,17,8,20,0.01
2013-12-27,52,46,39,40,35,32,80,67,46,30.40,30.29,19,7,25,0.00
2013-12-28,61,48,37,57,40,27,94,73,58,30.39,30.10,14,7,17,0.00
2013-12-29,66,61,52,65,59,50,98,93,88,30.10,29.74,20,12,34,0.46
2013-12-30,56,51,47,51,49,46,98,92,74,30.12,29.92,8,5,11,0.00
2013-12-31,54,49,44,47,42,35,90,77,49,30.35,30.09,10,4,16,0.00
2014-1-1,54,48,43,48,42,33,94,77,60,30.40,30.13,17,7,20,0.06
2014-1-2,60,52,46,60,51,45,100,98,93,30.13,29.56,23,4,34,0.75